Time;durP1;ratioP1;P1;durP2;ratioP2;P2;SDS_P1;SDS_P2;PMS_P1;PMS_P2;Temp;Humidity;BMP_temperature;BMP_pressure;BME280_temperature;BME280_humidity;BME280_pressure;Samples;Min_cycle;Max_cycle;Signal;HPM_P1;HPM_P2
2021/08/24 00:00:46;;;;;;;;;9.50;8.00;;;;;;;;5029741;28;45416;-89
2021/08/24 00:03:11;;;;;;;;;7.75;7.75;;;;;;;;5031023;28;45330;-86
2021/08/24 00:05:37;;;;;;;;;9.25;7.75;;;;;;;;5024647;28;45497;-85
2021/08/24 00:08:03;;;;;;;;;9.00;9.00;;;;;;;;5024900;28;45727;-88
2021/08/24 00:10:40;;;;;;;;;8.00;8.00;;;;;;;;5028773;28;45476;-87
2021/08/24 00:13:05;;;;;;;;;12.50;9.00;;;;;;;;5025427;28;45421;-86
2021/08/24 00:15:31;;;;;;;;;11.75;8.00;;;;;;;;5031855;28;48055;-84
2021/08/24 00:17:57;;;;;;;;;9.50;8.75;;;;;;;;5022912;28;45568;-86
2021/08/24 00:20:22;;;;;;;;;13.25;7.00;;;;;;;;5025128;28;45379;-88
2021/08/24 00:22:48;;;;;;;;;9.00;9.00;;;;;;;;5025566;28;45618;-89
2021/08/24 00:25:13;;;;;;;;;12.00;8.00;;;;;;;;5031904;28;46358;-88
2021/08/24 00:27:39;;;;;;;;;9.00;8.00;;;;;;;;5029747;28;45499;-89
2021/08/24 00:30:05;;;;;;;;;12.50;10.00;;;;;;;;5024731;28;45296;-89
2021/08/24 00:32:30;;;;;;;;;13.25;11.50;;;;;;;;5022273;28;45504;-87
2021/08/24 00:34:56;;;;;;;;;9.33;9.33;;;;;;;;5029279;28;45659;-89
2021/08/24 00:37:21;;;;;;;;;8.33;8.00;;;;;;;;5022863;28;45755;-87
2021/08/24 00:39:47;;;;;;;;;10.00;8.00;;;;;;;;5019812;28;45479;-89
2021/08/24 00:42:19;;;;;;;;;11.50;9.00;;;;;;;;5021506;28;45514;-87
2021/08/24 00:44:45;;;;;;;;;10.50;9.00;;;;;;;;5036304;28;47279;-89
2021/08/24 00:47:13;;;;;;;;;9.25;9.00;;;;;;;;5020239;28;57736;-86
2021/08/24 00:49:38;;;;;;;;;10.50;8.00;;;;;;;;5022994;28;45575;-87
2021/08/24 00:52:07;;;;;;;;;10.25;9.50;;;;;;;;5031234;28;45965;-89
2021/08/24 00:54:32;;;;;;;;;12.00;10.00;;;;;;;;5034323;28;46714;-88
2021/08/24 00:57:00;;;;;;;;;13.00;10.33;;;;;;;;5025687;28;45577;-88
2021/08/24 00:59:26;;;;;;;;;10.50;8.75;;;;;;;;5029140;28;45761;-86
2021/08/24 01:01:51;;;;;;;;;9.75;9.00;;;;;;;;5028197;28;45446;-88
2021/08/24 01:04:17;;;;;;;;;11.33;7.67;;;;;;;;5025411;28;45599;-89
2021/08/24 01:06:45;;;;;;;;;8.25;8.00;;;;;;;;5030469;28;45532;-87
2021/08/24 01:09:29;;;;;;;;;11.25;10.25;;;;;;;;5024012;28;45766;-88
2021/08/24 01:12:00;;;;;;;;;9.50;8.25;;;;;;;;5022287;28;45485;-88
2021/08/24 01:14:38;;;;;;;;;12.50;8.50;;;;;;;;5019050;28;46709;-86
2021/08/24 01:17:08;;;;;;;;;9.00;7.25;;;;;;;;5019916;28;45560;-89
2021/08/24 01:19:47;;;;;;;;;14.75;8.50;;;;;;;;5029351;28;45240;-89
2021/08/24 01:22:15;;;;;;;;;9.25;9.00;;;;;;;;5020734;28;45545;-86
2021/08/24 01:24:46;;;;;;;;;9.50;9.50;;;;;;;;5030142;28;46129;-87
2021/08/24 01:27:13;;;;;;;;;14.75;8.25;;;;;;;;5030139;28;45866;-84
2021/08/24 01:29:57;;;;;;;;;12.50;9.00;;;;;;;;5021307;28;45973;-87
2021/08/24 01:32:49;;;;;;;;;12.00;8.75;;;;;;;;5025077;28;45392;-87
2021/08/24 01:35:42;;;;;;;;;11.00;9.00;;;;;;;;5022979;28;46648;-89
2021/08/24 01:38:13;;;;;;;;;12.50;11.00;;;;;;;;5020790;28;45863;-88
2021/08/24 01:40:38;;;;;;;;;9.25;9.25;;;;;;;;5025938;28;45673;-87
2021/08/24 01:43:05;;;;;;;;;9.33;9.33;;;;;;;;5030420;28;45427;-88
2021/08/24 01:45:35;;;;;;;;;15.75;8.00;;;;;;;;5028476;28;46539;-82
2021/08/24 01:48:05;;;;;;;;;12.25;10.50;;;;;;;;5024505;28;45402;-87
2021/08/24 01:50:42;;;;;;;;;9.00;8.25;;;;;;;;5020595;28;45601;-88
2021/08/24 01:53:16;;;;;;;;;11.75;10.25;;;;;;;;5026943;28;45268;-88
2021/08/24 01:55:47;;;;;;;;;8.50;8.50;;;;;;;;5022444;28;45793;-88
2021/08/24 01:58:24;;;;;;;;;14.50;9.00;;;;;;;;5028309;28;45596;-88
2021/08/24 02:00:52;;;;;;;;;8.50;8.50;;;;;;;;5032200;28;45430;-88
2021/08/24 02:03:21;;;;;;;;;9.75;8.00;;;;;;;;5025721;28;45390;-88
2021/08/24 02:05:50;;;;;;;;;12.75;10.00;;;;;;;;5029357;28;47495;-89
2021/08/24 02:08:18;;;;;;;;;13.00;9.75;;;;;;;;5022214;28;45966;-89
2021/08/24 02:10:45;;;;;;;;;10.25;9.75;;;;;;;;5030457;28;45479;-88
2021/08/24 02:13:13;;;;;;;;;9.75;8.75;;;;;;;;5028495;28;45538;-87
2021/08/24 02:15:40;;;;;;;;;12.75;7.00;;;;;;;;5026365;28;48519;-88
2021/08/24 02:18:07;;;;;;;;;10.50;9.00;;;;;;;;5033047;28;49878;-88
2021/08/24 02:20:37;;;;;;;;;9.00;7.50;;;;;;;;5027636;28;45489;-88
2021/08/24 02:23:06;;;;;;;;;10.50;10.50;;;;;;;;5030903;28;45400;-88
2021/08/24 02:25:32;;;;;;;;;12.00;8.50;;;;;;;;5033006;28;48425;-88
2021/08/24 02:28:17;;;;;;;;;11.25;11.25;;;;;;;;5034954;28;45918;-89
2021/08/24 02:30:53;;;;;;;;;14.25;9.75;;;;;;;;5031405;28;45478;-87
2021/08/24 02:33:19;;;;;;;;;11.25;9.75;;;;;;;;5033418;28;45565;-89
2021/08/24 02:35:50;;;;;;;;;14.50;11.75;;;;;;;;5032582;28;45439;-88
2021/08/24 02:38:19;;;;;;;;;11.25;10.75;;;;;;;;5032263;28;45560;-89
2021/08/24 02:40:55;;;;;;;;;10.00;8.50;;;;;;;;5033832;28;45511;-88
2021/08/24 02:43:24;;;;;;;;;8.50;8.50;;;;;;;;5025806;28;45371;-87
2021/08/24 02:46:04;;;;;;;;;10.75;9.50;;;;;;;;5035858;28;46485;-87
2021/08/24 02:48:30;;;;;;;;;15.00;9.25;;;;;;;;5028846;28;45997;-88
2021/08/24 02:50:55;;;;;;;;;18.50;13.25;;;;;;;;5032317;28;45546;-86
2021/08/24 02:53:21;;;;;;;;;13.75;11.25;;;;;;;;5032730;28;45374;-88
2021/08/24 02:55:47;;;;;;;;;11.00;8.25;;;;;;;;5016901;28;47903;-88
2021/08/24 02:58:12;;;;;;;;;13.25;11.25;;;;;;;;5031388;28;45661;-86
2021/08/24 03:00:37;;;;;;;;;13.33;12.00;;;;;;;;5029633;28;45350;-85
2021/08/24 03:03:03;;;;;;;;;11.33;11.33;;;;;;;;5033967;28;45492;-88
2021/08/24 03:05:28;;;;;;;;;15.33;13.67;;;;;;;;5030087;28;47260;-87
2021/08/24 03:07:54;;;;;;;;;15.00;14.00;;;;;;;;5030886;28;45388;-88
2021/08/24 03:10:22;;;;;;;;;14.25;12.25;;;;;;;;5028398;28;45334;-88
2021/08/24 03:13:02;;;;;;;;;20.00;17.00;;;;;;;;5034869;28;45398;-87
2021/08/24 03:15:28;;;;;;;;;18.50;15.75;;;;;;;;5031624;28;45381;-86
2021/08/24 03:17:56;;;;;;;;;24.00;19.33;;;;;;;;5030718;28;45728;-88
2021/08/24 03:20:23;;;;;;;;;22.00;15.75;;;;;;;;5033499;28;45473;-89
2021/08/24 03:22:50;;;;;;;;;21.25;16.50;;;;;;;;5022742;28;45450;-89
2021/08/24 03:25:15;;;;;;;;;20.75;18.00;;;;;;;;5031804;28;46437;-88
2021/08/24 03:27:43;;;;;;;;;20.25;17.00;;;;;;;;5033536;28;46386;-89
2021/08/24 03:30:10;;;;;;;;;23.75;19.00;;;;;;;;5033237;28;45465;-88
2021/08/24 03:32:36;;;;;;;;;24.00;18.75;;;;;;;;5030363;28;45526;-90
2021/08/24 03:35:01;;;;;;;;;25.25;22.75;;;;;;;;5027682;28;46383;-88
2021/08/24 03:37:26;;;;;;;;;37.00;22.67;;;;;;;;5028240;28;48681;-86
2021/08/24 03:39:51;;;;;;;;;27.33;23.67;;;;;;;;5023560;28;45393;-87
2021/08/24 03:42:16;;;;;;;;;29.33;24.00;;;;;;;;5029871;28;45421;-89
2021/08/24 03:44:43;;;;;;;;;30.33;25.33;;;;;;;;5029132;28;45300;-89
2021/08/24 03:47:09;;;;;;;;;31.25;25.25;;;;;;;;5033398;28;45827;-88
2021/08/24 03:49:34;;;;;;;;;26.50;23.50;;;;;;;;5030512;28;45263;-88
2021/08/24 03:51:59;;;;;;;;;24.67;18.00;;;;;;;;5025593;28;46102;-88
2021/08/24 03:54:24;;;;;;;;;27.67;26.33;;;;;;;;5023758;28;47131;-89
2021/08/24 03:56:49;;;;;;;;;28.33;23.33;;;;;;;;5029421;28;45476;-90
2021/08/24 03:59:15;;;;;;;;;27.33;25.67;;;;;;;;5030440;28;45455;-88
2021/08/24 04:01:40;;;;;;;;;30.33;27.33;;;;;;;;5027823;28;45250;-88
2021/08/24 04:04:06;;;;;;;;;28.75;26.25;;;;;;;;5025437;28;47036;-88
2021/08/24 04:06:31;;;;;;;;;31.25;27.50;;;;;;;;5028667;28;45308;-86
2021/08/24 04:08:56;;;;;;;;;30.00;25.75;;;;;;;;5030108;28;45342;-89
2021/08/24 04:11:22;;;;;;;;;29.00;27.00;;;;;;;;5029766;28;45535;-88
2021/08/24 04:13:47;;;;;;;;;29.33;27.67;;;;;;;;5029262;28;46166;-88
2021/08/24 04:16:13;;;;;;;;;35.00;28.00;;;;;;;;5029996;28;45585;-89
2021/08/24 04:18:39;;;;;;;;;33.00;29.00;;;;;;;;5039359;28;45364;-87
2021/08/24 04:21:08;;;;;;;;;30.00;26.50;;;;;;;;5025713;28;45516;-89
2021/08/24 04:23:33;;;;;;;;;38.75;31.25;;;;;;;;5025778;28;45591;-89
2021/08/24 04:25:59;;;;;;;;;27.25;27.00;;;;;;;;5023786;28;45486;-87
2021/08/24 04:28:24;;;;;;;;;28.00;27.25;;;;;;;;5029550;28;46754;-88
2021/08/24 04:30:50;;;;;;;;;33.33;26.67;;;;;;;;5030070;28;45357;-88
2021/08/24 04:33:21;;;;;;;;;30.25;27.50;;;;;;;;5031625;28;45399;-88
2021/08/24 04:35:46;;;;;;;;;34.75;28.50;;;;;;;;5029910;28;45507;-88
2021/08/24 04:38:11;;;;;;;;;35.67;28.67;;;;;;;;5025541;28;46076;-89
2021/08/24 04:40:37;;;;;;;;;32.00;27.33;;;;;;;;5025025;28;45537;-89
2021/08/24 04:43:02;;;;;;;;;34.67;31.67;;;;;;;;5033192;28;46025;-90
2021/08/24 04:45:29;;;;;;;;;34.00;31.33;;;;;;;;5028665;28;45447;-88
2021/08/24 04:47:54;;;;;;;;;32.00;29.00;;;;;;;;5030573;28;45518;-88
2021/08/24 04:50:19;;;;;;;;;41.67;31.00;;;;;;;;5023055;28;45511;-86
2021/08/24 04:52:44;;;;;;;;;32.00;27.33;;;;;;;;5028609;28;45416;-89
2021/08/24 04:55:10;;;;;;;;;35.67;27.67;;;;;;;;5027089;28;46496;-86
2021/08/24 04:57:35;;;;;;;;;38.25;30.75;;;;;;;;5027949;28;45464;-88
2021/08/24 05:00:00;;;;;;;;;31.33;27.00;;;;;;;;5025954;28;45927;-89
2021/08/24 05:02:25;;;;;;;;;29.00;27.33;;;;;;;;5025036;28;45610;-89
2021/08/24 05:04:51;;;;;;;;;32.67;28.00;;;;;;;;5023521;28;45450;-87
2021/08/24 05:07:16;;;;;;;;;34.50;25.50;;;;;;;;5027520;28;45493;-89
2021/08/24 05:09:41;;;;;;;;;35.00;28.33;;;;;;;;5026806;28;45379;-90
2021/08/24 05:12:06;;;;;;;;;26.33;26.33;;;;;;;;5032104;28;52726;-89
2021/08/24 05:14:31;;;;;;;;;33.75;31.75;;;;;;;;5026686;28;45415;-88
2021/08/24 05:16:58;;;;;;;;;31.33;26.00;;;;;;;;5026718;28;45375;-90
2021/08/24 05:19:24;;;;;;;;;35.75;31.00;;;;;;;;5024138;28;45693;-90
2021/08/24 05:21:49;;;;;;;;;31.00;28.00;;;;;;;;5032128;28;45961;-90
2021/08/24 05:24:14;;;;;;;;;32.25;30.75;;;;;;;;5018679;28;45736;-90
2021/08/24 05:26:40;;;;;;;;;33.00;28.00;;;;;;;;5027536;28;45527;-88
2021/08/24 05:29:05;;;;;;;;;34.00;27.33;;;;;;;;5025459;28;45475;-90
2021/08/24 05:31:30;;;;;;;;;27.67;27.67;;;;;;;;5031663;28;45463;-88
2021/08/24 05:33:55;;;;;;;;;28.00;27.00;;;;;;;;5029340;28;45653;-88
2021/08/24 05:36:21;;;;;;;;;29.67;26.00;;;;;;;;5028614;28;45674;-90
2021/08/24 05:38:46;;;;;;;;;33.50;26.50;;;;;;;;5028538;28;45533;-89
2021/08/24 05:41:11;;;;;;;;;29.25;26.50;;;;;;;;5035230;28;45995;-89
2021/08/24 05:43:37;;;;;;;;;27.75;24.00;;;;;;;;5034421;28;45506;-90
2021/08/24 05:46:06;;;;;;;;;30.67;26.00;;;;;;;;5032999;28;45674;-90
2021/08/24 05:48:32;;;;;;;;;28.50;24.50;;;;;;;;5032536;28;45300;-89
2021/08/24 05:50:57;;;;;;;;;29.25;26.25;;;;;;;;5034219;28;46166;-90
2021/08/24 05:53:23;;;;;;;;;25.67;25.33;;;;;;;;5032631;28;45335;-90
2021/08/24 05:55:48;;;;;;;;;26.50;24.00;;;;;;;;5025250;28;45572;-88
2021/08/24 05:58:13;;;;;;;;;28.25;26.25;;;;;;;;5028495;28;45492;-91
2021/08/24 06:00:39;;;;;;;;;33.67;24.33;;;;;;;;5027552;28;46037;-88
2021/08/24 06:03:04;;;;;;;;;28.75;24.00;;;;;;;;5030981;28;45939;-91
2021/08/24 06:05:30;;;;;;;;;26.25;23.25;;;;;;;;5030548;28;45478;-87
2021/08/24 06:07:55;;;;;;;;;23.00;23.00;;;;;;;;5031835;28;45465;-87
2021/08/24 06:10:20;;;;;;;;;27.67;24.00;;;;;;;;5032641;28;45578;-89
2021/08/24 06:12:45;;;;;;;;;29.50;22.75;;;;;;;;5031684;28;45455;-89
2021/08/24 06:15:11;;;;;;;;;28.67;28.00;;;;;;;;5034145;28;45421;-90
2021/08/24 06:17:36;;;;;;;;;29.25;22.75;;;;;;;;5029391;28;45521;-91
2021/08/24 06:20:02;;;;;;;;;24.00;21.33;;;;;;;;5031583;28;48308;-89
2021/08/24 06:22:27;;;;;;;;;30.00;28.00;;;;;;;;5030438;28;45351;-88
2021/08/24 06:24:52;;;;;;;;;23.67;23.67;;;;;;;;5031835;28;45379;-90
2021/08/24 06:27:18;;;;;;;;;29.00;24.33;;;;;;;;5033758;28;45412;-88
2021/08/24 06:29:43;;;;;;;;;25.00;21.25;;;;;;;;5032896;28;45477;-90
2021/08/24 06:32:18;;;;;;;;;29.33;26.67;;;;;;;;5032627;28;45477;-89
2021/08/24 06:34:44;;;;;;;;;23.50;22.25;;;;;;;;5028917;28;45496;-90
2021/08/24 06:37:09;;;;;;;;;23.67;20.33;;;;;;;;5027016;28;45294;-87
2021/08/24 06:39:34;;;;;;;;;22.33;19.00;;;;;;;;5031272;28;45528;-89
2021/08/24 06:41:59;;;;;;;;;26.00;19.00;;;;;;;;5033199;28;45304;-90
2021/08/24 06:44:25;;;;;;;;;25.00;19.67;;;;;;;;5022468;28;45611;-89
2021/08/24 06:46:50;;;;;;;;;22.00;21.00;;;;;;;;5033229;28;45252;-89
2021/08/24 06:49:15;;;;;;;;;24.75;21.75;;;;;;;;5032037;28;48423;-88
2021/08/24 06:51:40;;;;;;;;;26.50;21.50;;;;;;;;5015717;28;45390;-87
2021/08/24 06:54:06;;;;;;;;;21.75;20.00;;;;;;;;5027010;28;45644;-90
2021/08/24 06:56:33;;;;;;;;;23.25;20.75;;;;;;;;5023973;28;45675;-89
2021/08/24 06:59:01;;;;;;;;;24.25;20.50;;;;;;;;5031198;28;46046;-90
2021/08/24 07:01:28;;;;;;;;;25.25;20.25;;;;;;;;5030948;28;45463;-83
2021/08/24 07:03:55;;;;;;;;;18.75;17.75;;;;;;;;5026128;28;45686;-90
2021/08/24 07:06:20;;;;;;;;;20.00;18.00;;;;;;;;5026791;28;45521;-89
2021/08/24 07:08:45;;;;;;;;;22.00;19.67;;;;;;;;5026687;28;46209;-90
2021/08/24 07:11:10;;;;;;;;;19.33;17.67;;;;;;;;5030778;28;45374;-90
2021/08/24 07:13:36;;;;;;;;;27.00;18.25;;;;;;;;5024623;28;45395;-89
2021/08/24 07:16:04;;;;;;;;;17.75;17.75;;;;;;;;5027988;28;45489;-93
2021/08/24 07:18:30;;;;;;;;;24.00;19.25;;;;;;;;5028147;28;46441;-91
2021/08/24 07:20:55;;;;;;;;;23.67;21.33;;;;;;;;5031009;28;45379;-86
2021/08/24 07:23:20;;;;;;;;;29.00;21.33;;;;;;;;5030140;28;45323;-87
2021/08/24 07:25:46;;;;;;;;;21.75;16.50;;;;;;;;5030691;28;45291;-92
2021/08/24 07:28:12;;;;;;;;;21.75;18.50;;;;;;;;5027299;28;46871;-88
2021/08/24 07:30:42;;;;;;;;;18.50;18.25;;;;;;;;5025989;28;45526;-94
2021/08/24 07:33:07;;;;;;;;;19.75;17.25;;;;;;;;5029745;28;45844;-88
2021/08/24 07:35:33;;;;;;;;;19.25;18.00;;;;;;;;5031016;28;45626;-86
2021/08/24 07:37:58;;;;;;;;;26.00;19.25;;;;;;;;5027316;28;47070;-88
2021/08/24 07:40:23;;;;;;;;;22.25;19.50;;;;;;;;5025921;28;45467;-85
2021/08/24 07:42:49;;;;;;;;;20.50;18.00;;;;;;;;5030665;28;45398;-90
2021/08/24 07:45:14;;;;;;;;;18.00;16.25;;;;;;;;5025944;28;45518;-88
2021/08/24 07:47:40;;;;;;;;;17.50;16.00;;;;;;;;5026086;28;47479;-90
2021/08/24 07:50:05;;;;;;;;;19.75;18.25;;;;;;;;5021116;28;45596;-89
2021/08/24 07:52:31;;;;;;;;;20.25;16.50;;;;;;;;5024854;28;45506;-94
2021/08/24 07:54:56;;;;;;;;;21.00;16.50;;;;;;;;5028337;28;45422;-91
2021/08/24 07:57:21;;;;;;;;;19.67;16.67;;;;;;;;5031558;28;46605;-86
2021/08/24 07:59:46;;;;;;;;;17.00;16.67;;;;;;;;5031239;28;45512;-88
2021/08/24 08:02:16;;;;;;;;;19.50;16.50;;;;;;;;5021591;28;45541;-89
2021/08/24 08:04:42;;;;;;;;;18.50;13.75;;;;;;;;5022397;28;45466;-90
2021/08/24 08:07:08;;;;;;;;;19.50;16.75;;;;;;;;5024096;28;45713;-90
2021/08/24 08:09:33;;;;;;;;;21.00;17.25;;;;;;;;5025646;28;45979;-90
2021/08/24 08:11:59;;;;;;;;;18.33;16.33;;;;;;;;5029807;28;45409;-90
2021/08/24 08:14:24;;;;;;;;;17.00;14.33;;;;;;;;5027866;28;46527;-92
2021/08/24 08:16:50;;;;;;;;;20.00;16.00;;;;;;;;5017601;28;46493;-92
2021/08/24 08:19:15;;;;;;;;;16.50;16.50;;;;;;;;5029481;28;45734;-90
2021/08/24 08:21:40;;;;;;;;;15.33;12.00;;;;;;;;5029380;28;46042;-92
2021/08/24 08:24:06;;;;;;;;;15.50;14.50;;;;;;;;5014312;28;46481;-90
2021/08/24 08:26:31;;;;;;;;;15.50;13.75;;;;;;;;5027595;28;46120;-91
2021/08/24 08:28:57;;;;;;;;;13.75;11.75;;;;;;;;5022228;28;45435;-90
2021/08/24 08:31:23;;;;;;;;;13.00;11.67;;;;;;;;5028295;28;45547;-85
2021/08/24 08:33:49;;;;;;;;;18.25;14.50;;;;;;;;5030791;28;45412;-88
2021/08/24 08:36:14;;;;;;;;;24.50;12.25;;;;;;;;5029466;28;47599;-88
2021/08/24 08:38:40;;;;;;;;;15.00;12.00;;;;;;;;5025266;28;45501;-86
2021/08/24 08:41:17;;;;;;;;;11.00;11.00;;;;;;;;5029025;28;45402;-85
2021/08/24 08:43:42;;;;;;;;;11.25;10.25;;;;;;;;5023929;28;45691;-84
2021/08/24 08:46:17;;;;;;;;;13.00;11.00;;;;;;;;5027139;28;45388;-88
2021/08/24 08:48:42;;;;;;;;;14.50;11.00;;;;;;;;5018631;28;45826;-79
2021/08/24 08:51:10;;;;;;;;;20.33;15.33;;;;;;;;5028031;28;45892;-86
2021/08/24 08:53:41;;;;;;;;;27.75;23.50;;;;;;;;5028945;28;45711;-87
2021/08/24 08:56:25;;;;;;;;;11.25;11.25;;;;;;;;5024988;28;45506;-86
2021/08/24 08:58:58;;;;;;;;;10.00;9.00;;;;;;;;5018366;28;45448;-87
2021/08/24 09:01:43;;;;;;;;;8.75;8.75;;;;;;;;5029193;28;46228;-86
2021/08/24 09:04:15;;;;;;;;;9.25;8.50;;;;;;;;5028725;28;45506;-86
2021/08/24 09:06:41;;;;;;;;;13.00;9.00;;;;;;;;5025048;28;45537;-88
2021/08/24 09:09:08;;;;;;;;;8.50;6.25;;;;;;;;5028234;28;45865;-87
2021/08/24 09:11:36;;;;;;;;;9.50;8.25;;;;;;;;5026126;28;45481;-87
2021/08/24 09:14:04;;;;;;;;;11.00;8.75;;;;;;;;5030525;28;45481;-86
2021/08/24 09:16:36;;;;;;;;;11.25;7.75;;;;;;;;5032385;28;45557;-86
2021/08/24 09:19:04;;;;;;;;;8.00;7.75;;;;;;;;5027388;28;45367;-84
2021/08/24 09:21:35;;;;;;;;;10.50;7.25;;;;;;;;5031573;28;45947;-84
2021/08/24 09:24:07;;;;;;;;;10.50;7.50;;;;;;;;5020885;28;45819;-86
2021/08/24 09:26:47;;;;;;;;;11.75;9.00;;;;;;;;5026122;28;45425;-89
2021/08/24 09:29:13;;;;;;;;;11.25;9.25;;;;;;;;5026030;28;45487;-88
2021/08/24 09:31:39;;;;;;;;;8.00;7.00;;;;;;;;5027445;28;45377;-86
2021/08/24 09:34:05;;;;;;;;;6.50;6.00;;;;;;;;5027493;28;45587;-84
2021/08/24 09:36:30;;;;;;;;;7.00;6.50;;;;;;;;5031269;28;46318;-85
2021/08/24 09:38:57;;;;;;;;;9.75;8.00;;;;;;;;5028225;28;45448;-85
2021/08/24 09:41:30;;;;;;;;;7.75;6.50;;;;;;;;5029209;28;45619;-85
2021/08/24 09:43:56;;;;;;;;;7.75;5.00;;;;;;;;5018725;28;45386;-86
2021/08/24 09:46:21;;;;;;;;;6.00;6.00;;;;;;;;5026859;28;47977;-85
2021/08/24 09:48:58;;;;;;;;;6.00;6.00;;;;;;;;5030255;28;45864;-86
2021/08/24 09:51:38;;;;;;;;;8.00;6.50;;;;;;;;5030773;28;45473;-86
2021/08/24 09:54:22;;;;;;;;;6.00;6.00;;;;;;;;5024135;28;45693;-85
2021/08/24 09:56:56;;;;;;;;;6.75;6.75;;;;;;;;5024856;28;50961;-85
2021/08/24 09:59:37;;;;;;;;;6.00;5.00;;;;;;;;5026845;28;45517;-85
2021/08/24 10:02:03;;;;;;;;;7.00;5.00;;;;;;;;5020872;28;45438;-85
2021/08/24 10:04:29;;;;;;;;;7.00;4.75;;;;;;;;5029360;28;45535;-84
2021/08/24 10:06:57;;;;;;;;;5.33;4.33;;;;;;;;5025080;28;46280;-85
2021/08/24 10:09:22;;;;;;;;;6.50;6.50;;;;;;;;5029109;28;45707;-87
2021/08/24 10:11:47;;;;;;;;;6.33;6.00;;;;;;;;5028657;28;45485;-90
2021/08/24 10:14:19;;;;;;;;;4.33;4.33;;;;;;;;5028924;28;45387;-89
2021/08/24 10:16:45;;;;;;;;;6.00;6.00;;;;;;;;5029990;28;45439;-87
2021/08/24 10:19:18;;;;;;;;;6.00;5.00;;;;;;;;5033574;28;45944;-89
2021/08/24 10:21:52;;;;;;;;;4.25;4.25;;;;;;;;5024110;28;45412;-83
2021/08/24 10:24:24;;;;;;;;;5.00;5.00;;;;;;;;5033445;28;45577;-86
2021/08/24 10:26:53;;;;;;;;;4.00;4.00;;;;;;;;5031313;28;45464;-84
2021/08/24 10:29:24;;;;;;;;;4.50;4.50;;;;;;;;5032069;28;45579;-85
2021/08/24 10:31:49;;;;;;;;;7.50;6.00;;;;;;;;5020921;28;45669;-79
2021/08/24 10:34:23;;;;;;;;;5.00;5.00;;;;;;;;5026136;28;45580;-76
2021/08/24 10:36:49;;;;;;;;;6.25;4.00;;;;;;;;5033297;28;46134;-76
2021/08/24 10:39:20;;;;;;;;;5.00;5.00;;;;;;;;5032846;28;45477;-78
2021/08/24 10:41:49;;;;;;;;;5.00;5.00;;;;;;;;5029925;28;45524;-76
2021/08/24 10:44:20;;;;;;;;;6.00;5.25;;;;;;;;5032859;28;45525;-75
2021/08/24 10:46:46;;;;;;;;;4.75;4.75;;;;;;;;5029017;28;47120;-77
2021/08/24 10:49:11;;;;;;;;;5.00;5.00;;;;;;;;5023108;28;45498;-76
2021/08/24 10:51:47;;;;;;;;;5.00;4.00;;;;;;;;5023810;28;45535;-77
2021/08/24 10:54:31;;;;;;;;;3.75;3.75;;;;;;;;5024700;28;45569;-76
2021/08/24 10:57:14;;;;;;;;;4.75;4.75;;;;;;;;5028150;28;46283;-76
2021/08/24 11:00:02;;;;;;;;;3.00;3.00;;;;;;;;5031707;28;45808;-76
2021/08/24 11:02:36;;;;;;;;;5.00;3.50;;;;;;;;5029774;28;45558;-77
2021/08/24 11:05:15;;;;;;;;;3.75;3.75;;;;;;;;5024677;28;45477;-76
2021/08/24 11:07:43;;;;;;;;;6.25;4.00;;;;;;;;5025153;28;46118;-76
2021/08/24 11:10:37;;;;;;;;;6.00;5.00;;;;;;;;5027526;28;45300;-76
2021/08/24 11:13:16;;;;;;;;;5.00;4.25;;;;;;;;5019057;28;45472;-76
2021/08/24 11:15:56;;;;;;;;;4.50;4.50;;;;;;;;5030033;28;45373;-76
2021/08/24 11:18:26;;;;;;;;;5.50;4.25;;;;;;;;5032786;28;47589;-76
2021/08/24 11:21:10;;;;;;;;;3.25;3.25;;;;;;;;5031600;28;45719;-76
2021/08/24 11:23:48;;;;;;;;;4.50;3.00;;;;;;;;5031640;28;45300;-76
2021/08/24 11:26:16;;;;;;;;;3.75;3.75;;;;;;;;5031675;28;45539;-76
2021/08/24 11:29:00;;;;;;;;;3.00;3.00;;;;;;;;5013837;28;45585;-77
2021/08/24 11:31:25;;;;;;;;;4.00;2.00;;;;;;;;5027439;28;45580;-77
2021/08/24 11:34:06;;;;;;;;;3.00;3.00;;;;;;;;5026541;28;45494;-77
2021/08/24 11:36:36;;;;;;;;;3.75;3.75;;;;;;;;5030966;28;45526;-78
2021/08/24 11:39:04;;;;;;;;;4.25;2.50;;;;;;;;5028733;28;46363;-77
2021/08/24 11:41:30;;;;;;;;;2.75;2.75;;;;;;;;5029481;28;45528;-77
2021/08/24 11:44:04;;;;;;;;;3.00;3.00;;;;;;;;5021989;28;45486;-77
2021/08/24 11:46:32;;;;;;;;;2.00;2.00;;;;;;;;5025294;28;45604;-77
2021/08/24 11:49:18;;;;;;;;;3.50;2.75;;;;;;;;5029577;28;45284;-77
2021/08/24 11:51:46;;;;;;;;;2.00;2.00;;;;;;;;5028747;28;45491;-77
2021/08/24 11:54:38;;;;;;;;;3.25;2.75;;;;;;;;5030421;28;45755;-76
2021/08/24 11:57:09;;;;;;;;;2.25;2.25;;;;;;;;4994368;28;45617;-76
2021/08/24 11:59:48;;;;;;;;;2.75;2.75;;;;;;;;4963325;28;46155;-78
2021/08/24 12:02:17;;;;;;;;;3.75;3.75;;;;;;;;4987933;28;45420;-78
2021/08/24 12:04:45;;;;;;;;;3.00;3.00;;;;;;;;4977686;28;45600;-76
2021/08/24 12:07:15;;;;;;;;;3.00;3.00;;;;;;;;4983321;28;45969;-79
2021/08/24 12:09:42;;;;;;;;;5.25;3.00;;;;;;;;4987880;28;45811;-76
2021/08/24 12:12:10;;;;;;;;;4.25;3.25;;;;;;;;4986690;28;45733;-78
2021/08/24 12:14:38;;;;;;;;;4.00;3.00;;;;;;;;4988340;28;45551;-76
2021/08/24 12:17:06;;;;;;;;;3.50;3.50;;;;;;;;4989373;28;45670;-76
2021/08/24 12:19:32;;;;;;;;;3.25;3.00;;;;;;;;4987288;28;45573;-75
2021/08/24 12:22:00;;;;;;;;;2.75;2.75;;;;;;;;4982342;28;45849;-75
2021/08/24 12:24:28;;;;;;;;;3.00;3.00;;;;;;;;4986090;28;45808;-76
2021/08/24 12:26:56;;;;;;;;;2.00;2.00;;;;;;;;4960810;28;45822;-75
2021/08/24 12:29:36;;;;;;;;;3.75;3.75;;;;;;;;4970866;28;47221;-76
2021/08/24 12:32:02;;;;;;;;;4.00;3.50;;;;;;;;4989134;28;46303;-75
2021/08/24 12:34:33;;;;;;;;;4.00;3.00;;;;;;;;5010042;28;45533;-77
2021/08/24 12:37:03;;;;;;;;;2.00;2.00;;;;;;;;5020727;28;45415;-77
2021/08/24 12:39:34;;;;;;;;;3.00;3.00;;;;;;;;5026844;28;45539;-77
2021/08/24 12:42:20;;;;;;;;;3.00;3.00;;;;;;;;5028073;28;45295;-77
2021/08/24 12:44:47;;;;;;;;;2.25;2.25;;;;;;;;5019423;28;45463;-76
2021/08/24 12:47:21;;;;;;;;;4.00;2.75;;;;;;;;5017587;28;45879;-77
2021/08/24 12:49:47;;;;;;;;;2.00;2.00;;;;;;;;5016025;28;46277;-77
2021/08/24 12:52:15;;;;;;;;;2.75;2.75;;;;;;;;5017947;28;45759;-77
2021/08/24 12:54:45;;;;;;;;;3.25;2.25;;;;;;;;5013077;28;46275;-76
2021/08/24 12:57:24;;;;;;;;;2.00;2.00;;;;;;;;5016493;28;45636;-76
2021/08/24 12:59:52;;;;;;;;;4.00;4.00;;;;;;;;5020174;28;47690;-77
2021/08/24 13:02:29;;;;;;;;;3.00;3.00;;;;;;;;5015482;28;46201;-76
2021/08/24 13:05:01;;;;;;;;;3.75;3.75;;;;;;;;5017054;28;45638;-76
2021/08/24 13:07:36;;;;;;;;;3.50;3.50;;;;;;;;5017393;28;45500;-77
2021/08/24 13:10:14;;;;;;;;;4.00;3.00;;;;;;;;5019602;28;46203;-77
2021/08/24 13:12:40;;;;;;;;;1.75;1.75;;;;;;;;5014012;28;45808;-76
2021/08/24 13:15:27;;;;;;;;;4.75;3.75;;;;;;;;5018435;28;45437;-76
2021/08/24 13:17:54;;;;;;;;;3.00;2.50;;;;;;;;5015716;28;45446;-76
2021/08/24 13:20:25;;;;;;;;;3.75;3.75;;;;;;;;5013150;28;46364;-76
2021/08/24 13:22:52;;;;;;;;;3.50;1.75;;;;;;;;5019138;28;45583;-76
2021/08/24 13:25:22;;;;;;;;;4.75;3.50;;;;;;;;5011220;28;46339;-76
2021/08/24 13:27:49;;;;;;;;;8.75;3.00;;;;;;;;5022725;28;45534;-76
2021/08/24 13:30:17;;;;;;;;;4.25;2.00;;;;;;;;5029970;28;46539;-74
2021/08/24 13:32:50;;;;;;;;;3.00;3.00;;;;;;;;5027826;28;45721;-75
2021/08/24 13:35:27;;;;;;;;;4.00;3.00;;;;;;;;5026041;28;45388;-76
2021/08/24 13:38:28;;;;;;;;;3.00;3.00;;;;;;;;5022884;28;45498;-75
2021/08/24 13:40:55;;;;;;;;;5.75;3.00;;;;;;;;4982977;28;45527;-75
2021/08/24 13:43:27;;;;;;;;;2.00;2.00;;;;;;;;4985767;28;45541;-75
2021/08/24 13:45:53;;;;;;;;;4.00;4.00;;;;;;;;4970332;28;48623;-75
2021/08/24 13:48:20;;;;;;;;;4.00;2.75;;;;;;;;4986822;28;45384;-75
2021/08/24 13:50:45;;;;;;;;;3.50;3.00;;;;;;;;4969897;28;48136;-75
2021/08/24 13:53:14;;;;;;;;;2.00;2.00;;;;;;;;4990273;28;45750;-74
2021/08/24 13:55:39;;;;;;;;;5.00;4.50;;;;;;;;4991695;28;45442;-76
2021/08/24 13:58:20;;;;;;;;;6.00;3.25;;;;;;;;4975085;28;45588;-75
2021/08/24 14:00:55;;;;;;;;;5.50;3.75;;;;;;;;4991620;28;45527;-76
2021/08/24 14:03:21;;;;;;;;;4.25;3.00;;;;;;;;4977938;28;45830;-76
2021/08/24 14:05:53;;;;;;;;;3.75;3.75;;;;;;;;4978387;28;45467;-82
2021/08/24 14:08:18;;;;;;;;;5.00;3.00;;;;;;;;4985661;28;45497;-83
2021/08/24 14:10:43;;;;;;;;;3.00;3.00;;;;;;;;4982873;28;46389;-83
2021/08/24 14:13:18;;;;;;;;;3.00;3.00;;;;;;;;4990508;28;45729;-83
2021/08/24 14:15:46;;;;;;;;;3.25;2.75;;;;;;;;5023647;28;45524;-83
2021/08/24 14:18:17;;;;;;;;;2.50;2.50;;;;;;;;5029456;28;45449;-83
2021/08/24 14:20:47;;;;;;;;;3.25;3.25;;;;;;;;5027255;28;46123;-83
2021/08/24 14:23:12;;;;;;;;;6.25;2.75;;;;;;;;5033366;28;45638;-82
2021/08/24 14:25:44;;;;;;;;;2.33;2.33;;;;;;;;5031669;28;45608;-83
2021/08/24 14:28:24;;;;;;;;;3.25;3.25;;;;;;;;5032357;28;45520;-83
2021/08/24 14:30:51;;;;;;;;;3.50;2.00;;;;;;;;5031218;28;45546;-83
2021/08/24 14:33:18;;;;;;;;;3.00;3.00;;;;;;;;5033177;28;45619;-83
2021/08/24 14:35:46;;;;;;;;;3.25;3.25;;;;;;;;5030419;28;45624;-83
2021/08/24 14:38:26;;;;;;;;;3.00;3.00;;;;;;;;5032169;28;45436;-82